createdAt,value
2019-02-16T00:00:45.962Z,22.37
2019-02-16T00:03:13.227Z,24.97
2019-02-16T00:05:40.462Z,26.80
2019-02-16T00:08:07.720Z,24.50
2019-02-16T00:10:44.214Z,27.20
2019-02-16T00:13:12.051Z,31.23
2019-02-16T00:15:39.287Z,26.67
2019-02-16T00:18:29.180Z,29.83
2019-02-16T00:21:03.731Z,21.77
2019-02-16T00:23:26.412Z,20.97
2019-02-16T00:25:53.927Z,21.07
2019-02-16T00:28:21.174Z,19.37
2019-02-16T00:30:48.396Z,21.87
2019-02-16T00:33:15.649Z,23.00
2019-02-16T00:35:42.876Z,26.83
2019-02-16T00:38:10.141Z,29.13
2019-02-16T00:40:37.861Z,25.73
2019-02-16T00:43:05.173Z,25.13
2019-02-16T00:45:32.404Z,27.83
2019-02-16T00:47:59.621Z,28.10
2019-02-16T00:50:26.867Z,25.83
2019-02-16T00:52:54.084Z,28.40
2019-02-16T00:55:21.676Z,26.30
2019-02-16T00:57:48.930Z,25.43
2019-02-16T01:00:16.274Z,24.43
2019-02-16T01:02:43.497Z,24.40
2019-02-16T01:05:10.739Z,21.13
2019-02-16T01:07:38.321Z,21.30
2019-02-16T01:10:06.366Z,20.60
2019-02-16T01:12:33.588Z,19.53
2019-02-16T01:15:01.248Z,18.60
2019-02-16T01:17:28.472Z,22.70
2019-02-16T01:19:55.824Z,23.03
2019-02-16T01:22:23.047Z,21.60
2019-02-16T01:24:50.289Z,20.77
2019-02-16T01:27:17.521Z,19.27
2019-02-16T01:29:44.767Z,19.97
2019-02-16T01:32:12.004Z,18.83
2019-02-16T01:34:39.331Z,23.67
2019-02-16T01:37:06.793Z,23.43
2019-02-16T01:39:34.051Z,22.13
2019-02-16T01:42:01.578Z,21.80
2019-02-16T01:44:28.861Z,19.90
2019-02-16T01:46:56.185Z,23.83
2019-02-16T01:49:23.744Z,23.73
2019-02-16T01:51:50.984Z,20.67
2019-02-16T01:54:18.266Z,21.67
2019-02-16T01:56:45.487Z,21.73
2019-02-16T01:59:12.755Z,17.23
2019-02-16T02:01:40.418Z,21.27
2019-02-16T02:04:07.668Z,17.63
2019-02-16T02:06:34.998Z,18.97
2019-02-16T02:09:04.404Z,20.27
2019-02-16T02:11:31.896Z,19.73
2019-02-16T02:13:59.160Z,19.17
2019-02-16T02:16:26.389Z,18.10
2019-02-16T02:18:53.672Z,15.67
2019-02-16T02:21:21.188Z,17.30
2019-02-16T02:23:48.512Z,18.80
2019-02-16T02:26:15.738Z,19.20
2019-02-16T02:28:43.066Z,19.17
2019-02-16T02:31:10.293Z,15.57
2019-02-16T02:33:37.626Z,15.07
2019-02-16T02:36:04.860Z,18.47
2019-02-16T02:38:31.992Z,18.87
2019-02-16T02:40:59.221Z,14.83
2019-02-16T02:43:26.766Z,14.77
2019-02-16T02:45:54.010Z,16.00
2019-02-16T02:48:21.668Z,15.47
2019-02-16T02:50:48.923Z,12.53
2019-02-16T02:53:16.247Z,15.80
2019-02-16T02:55:43.523Z,13.63
2019-02-16T02:58:10.749Z,16.07
2019-02-16T03:00:38.009Z,16.10
2019-02-16T03:03:05.243Z,15.03
2019-02-16T03:05:32.571Z,15.70
2019-02-16T03:08:00.127Z,16.03
2019-02-16T03:10:27.407Z,16.40
2019-02-16T03:12:54.647Z,13.70
2019-02-16T03:15:25.242Z,13.40
2019-02-16T03:17:52.562Z,15.20
2019-02-16T03:20:19.909Z,16.93
2019-02-16T03:23:12.655Z,17.90
2019-02-16T03:25:41.134Z,17.53
2019-02-16T03:28:32.681Z,19.10
2019-02-16T03:31:34.648Z,20.37
2019-02-16T03:34:07.517Z,14.77
2019-02-16T03:37:01.687Z,19.00
2019-02-16T03:39:32.113Z,16.10
2019-02-16T03:41:59.441Z,18.23
2019-02-16T03:44:26.752Z,17.33
2019-02-16T03:46:54.000Z,15.50
2019-02-16T03:49:21.223Z,15.07
2019-02-16T03:51:51.293Z,16.37
2019-02-16T03:54:18.938Z,17.43
2019-02-16T03:56:46.164Z,17.57
2019-02-16T03:59:13.436Z,20.50
2019-02-16T04:01:40.777Z,21.13
2019-02-16T04:04:08.034Z,14.97
2019-02-16T04:06:35.269Z,18.30
2019-02-16T04:09:04.464Z,19.37
2019-02-16T04:11:31.830Z,19.70
2019-02-16T04:13:59.188Z,16.93
2019-02-16T04:16:26.764Z,18.97
2019-02-16T04:18:54.008Z,16.93
2019-02-16T04:21:21.675Z,17.20
2019-02-16T04:23:48.924Z,18.77
2019-02-16T04:26:16.215Z,16.93
2019-02-16T04:28:43.440Z,16.87
2019-02-16T04:31:10.683Z,18.70
2019-02-16T04:33:37.933Z,17.00
2019-02-16T04:36:05.191Z,19.13
2019-02-16T04:38:32.428Z,18.13
2019-02-16T04:40:59.975Z,19.03
2019-02-16T04:43:27.209Z,16.83
2019-02-16T04:45:54.485Z,17.03
2019-02-16T04:48:21.727Z,14.87
2019-02-16T04:50:48.967Z,15.53
2019-02-16T04:53:16.211Z,18.17
2019-02-16T04:55:43.460Z,15.50
2019-02-16T04:58:10.712Z,20.20
2019-02-16T05:00:37.946Z,16.77
2019-02-16T05:03:05.203Z,18.27
2019-02-16T05:05:32.434Z,16.60
2019-02-16T05:07:59.974Z,16.57
2019-02-16T05:10:27.244Z,16.77
2019-02-16T05:12:54.568Z,18.50
2019-02-16T05:15:21.857Z,16.47
2019-02-16T05:17:49.213Z,16.80
2019-02-16T05:20:16.439Z,15.33
2019-02-16T05:22:45.004Z,14.17
2019-02-16T05:25:12.468Z,15.47
2019-02-16T05:27:39.711Z,19.33
2019-02-16T05:30:07.290Z,14.23
2019-02-16T05:32:35.258Z,20.30
2019-02-16T05:35:02.501Z,18.47
2019-02-16T05:37:30.505Z,22.93
2019-02-16T05:39:57.901Z,22.80
2019-02-16T05:42:25.168Z,24.70
2019-02-16T05:44:52.399Z,24.53
2019-02-16T05:47:19.641Z,21.67
2019-02-16T05:49:47.089Z,20.43
2019-02-16T05:52:14.305Z,22.47
2019-02-16T05:54:41.541Z,20.10
2019-02-16T05:57:08.793Z,18.57
2019-02-16T05:59:36.116Z,19.30
2019-02-16T06:02:03.732Z,21.60
2019-02-16T06:04:30.953Z,18.10
2019-02-16T06:06:58.563Z,17.07
2019-02-16T06:09:25.790Z,17.87
2019-02-16T06:11:53.151Z,13.87
2019-02-16T06:14:20.456Z,16.63
2019-02-16T06:16:47.936Z,17.33
2019-02-16T06:19:15.158Z,17.20
2019-02-16T06:21:42.385Z,22.90
2019-02-16T06:24:09.613Z,23.73
2019-02-16T06:26:36.841Z,20.47
2019-02-16T06:29:04.065Z,19.57
2019-02-16T06:31:31.300Z,24.73
2019-02-16T06:33:58.532Z,18.67
2019-02-16T06:36:51.347Z,23.40
2019-02-16T06:39:18.569Z,21.77
2019-02-16T06:41:45.825Z,21.33
2019-02-16T06:44:13.161Z,22.97
2019-02-16T06:46:40.403Z,21.17
2019-02-16T06:49:07.655Z,26.50
2019-02-16T06:51:34.877Z,23.50
2019-02-16T06:54:02.412Z,20.60
2019-02-16T06:57:01.022Z,21.33
2019-02-16T06:59:28.565Z,19.00
2019-02-16T07:01:56.121Z,20.17
2019-02-16T07:04:23.459Z,22.60
2019-02-16T07:06:50.698Z,20.40
2019-02-16T07:09:18.284Z,23.07
2019-02-16T07:11:45.514Z,24.13
2019-02-16T07:14:12.840Z,22.47
2019-02-16T07:16:55.344Z,25.43
2019-02-16T07:19:28.262Z,23.67
2019-02-16T07:21:55.990Z,25.77
2019-02-16T07:24:23.233Z,20.73
2019-02-16T07:26:50.461Z,21.97
2019-02-16T07:29:17.787Z,23.17
2019-02-16T07:31:45.007Z,24.60
2019-02-16T07:34:12.613Z,25.23
2019-02-16T07:36:40.174Z,23.63
2019-02-16T07:39:07.841Z,25.73
2019-02-16T07:41:35.087Z,24.90
2019-02-16T07:44:30.854Z,27.77
2019-02-16T07:47:21.911Z,23.07
2019-02-16T07:50:23.691Z,24.73
2019-02-16T07:53:13.560Z,23.27
2019-02-16T07:55:50.897Z,20.90
2019-02-16T07:58:32.016Z,24.97
2019-02-16T08:01:17.431Z,22.83
2019-02-16T08:04:10.359Z,24.53
2019-02-16T08:07:02.931Z,21.37
2019-02-16T08:09:48.311Z,22.13
2019-02-16T08:12:33.428Z,25.33
2019-02-16T08:15:05.698Z,21.70
2019-02-16T08:17:40.156Z,29.67
2019-02-16T08:20:19.078Z,30.50
2019-02-16T08:23:05.972Z,28.80
2019-02-16T08:25:51.684Z,22.97
2019-02-16T08:28:47.276Z,25.50
2019-02-16T08:31:36.836Z,28.90
2019-02-16T08:34:17.292Z,35.77
2019-02-16T08:37:04.048Z,38.00
2019-02-16T08:40:08.996Z,38.33
2019-02-16T08:42:42.617Z,32.20
2019-02-16T08:45:29.392Z,30.77
2019-02-16T08:48:15.871Z,26.10
2019-02-16T08:50:48.203Z,26.20
2019-02-16T08:53:37.931Z,25.30
2019-02-16T08:56:21.095Z,24.60
2019-02-16T08:59:00.454Z,21.90
2019-02-16T09:01:49.707Z,19.47
2019-02-16T09:04:25.483Z,18.60
2019-02-16T09:07:27.129Z,16.37
2019-02-16T09:10:06.773Z,17.87
2019-02-16T09:12:45.065Z,16.10
2019-02-16T09:15:33.146Z,15.63
2019-02-16T09:18:18.424Z,17.57
2019-02-16T09:21:14.203Z,17.17
2019-02-16T09:23:45.752Z,17.07
2019-02-16T09:26:35.577Z,17.33
2019-02-16T09:29:12.737Z,18.70
2019-02-16T09:32:17.641Z,14.97
2019-02-16T09:35:03.185Z,16.50
2019-02-16T09:37:41.849Z,18.60
2019-02-16T09:40:20.567Z,20.13
2019-02-16T09:43:08.001Z,20.67
2019-02-16T09:45:53.806Z,17.93
2019-02-16T09:48:35.200Z,20.07
2019-02-16T09:51:16.999Z,17.93
2019-02-16T09:54:08.483Z,19.10
2019-02-16T09:56:52.384Z,16.87
2019-02-16T09:59:26.374Z,19.77
2019-02-16T10:02:04.333Z,16.07
2019-02-16T10:04:56.084Z,19.47
2019-02-16T10:07:41.237Z,14.40
2019-02-16T10:10:22.770Z,17.50
2019-02-16T10:12:55.805Z,18.33
2019-02-16T10:16:00.661Z,17.27
2019-02-16T10:18:47.405Z,17.37
2019-02-16T10:21:32.010Z,19.67
2019-02-16T10:24:18.275Z,20.50
2019-02-16T10:26:55.280Z,19.37
2019-02-16T10:29:37.076Z,16.73
2019-02-16T10:32:17.735Z,19.17
2019-02-16T10:35:10.311Z,19.57
2019-02-16T10:37:59.729Z,21.27
2019-02-16T10:40:47.736Z,18.07
2019-02-16T10:43:34.523Z,19.93
2019-02-16T10:46:17.727Z,21.10
2019-02-16T10:49:03.156Z,19.10
2019-02-16T10:51:39.268Z,21.10
2019-02-16T10:54:28.014Z,20.13
2019-02-16T10:57:10.580Z,18.77
2019-02-16T11:00:01.256Z,19.03
2019-02-16T11:02:51.067Z,21.80
2019-02-16T11:05:37.814Z,18.17
2019-02-16T11:08:18.279Z,16.67
2019-02-16T11:10:52.966Z,18.83
2019-02-16T11:13:56.798Z,19.90
2019-02-16T11:17:03.803Z,19.90
2019-02-16T11:19:37.511Z,15.83
2019-02-16T11:22:12.838Z,21.27
2019-02-16T11:25:06.025Z,16.20
2019-02-16T11:28:11.718Z,18.37
2019-02-16T11:30:50.072Z,17.73
2019-02-16T11:33:35.624Z,17.60
2019-02-16T11:36:32.043Z,13.03
2019-02-16T11:39:09.475Z,18.13
2019-02-16T11:41:59.309Z,13.87
2019-02-16T11:44:51.897Z,12.50
2019-02-16T11:47:34.420Z,16.43
2019-02-16T11:50:18.429Z,12.17
2019-02-16T11:53:05.530Z,11.50
2019-02-16T11:55:52.803Z,13.30
2019-02-16T11:58:33.055Z,14.70
2019-02-16T12:01:32.111Z,12.03
2019-02-16T12:04:07.194Z,13.93
2019-02-16T12:06:39.207Z,11.47
2019-02-16T12:09:26.436Z,13.50
2019-02-16T12:12:09.235Z,12.50
2019-02-16T12:15:13.914Z,13.53
2019-02-16T12:18:18.990Z,13.63
2019-02-16T12:20:55.738Z,14.10
2019-02-16T12:23:34.666Z,13.47
2019-02-16T12:26:16.991Z,12.37
2019-02-16T12:29:06.763Z,14.83
2019-02-16T12:31:49.076Z,13.40
2019-02-16T12:34:26.797Z,14.53
2019-02-16T12:37:22.540Z,14.00
2019-02-16T12:39:59.051Z,13.57
2019-02-16T12:42:55.488Z,13.70
2019-02-16T12:46:00.953Z,14.70
2019-02-16T12:48:46.653Z,16.90
2019-02-16T12:51:33.786Z,15.07
2019-02-16T12:54:21.941Z,17.33
2019-02-16T12:57:07.420Z,17.73
2019-02-16T13:00:00.182Z,16.93
2019-02-16T13:02:49.952Z,15.90
2019-02-16T13:05:30.886Z,18.97
2019-02-16T13:08:07.212Z,17.63
2019-02-16T13:10:47.722Z,19.20
2019-02-16T13:13:22.450Z,18.43
2019-02-16T13:16:07.815Z,18.10
2019-02-16T13:19:09.580Z,18.43
2019-02-16T13:21:59.459Z,17.77
2019-02-16T13:24:41.514Z,19.43
2019-02-16T13:27:28.266Z,17.90
2019-02-16T13:30:12.363Z,18.40
2019-02-16T13:33:08.253Z,17.20
2019-02-16T13:35:44.604Z,21.40
2019-02-16T13:38:26.044Z,19.07
2019-02-16T13:41:07.727Z,19.30
2019-02-16T13:44:03.913Z,19.63
2019-02-16T13:46:37.066Z,20.57
2019-02-16T13:49:09.051Z,20.87
2019-02-16T13:51:42.407Z,18.90
2019-02-16T13:54:17.553Z,20.10
2019-02-16T13:56:55.656Z,20.20
2019-02-16T13:59:29.967Z,20.33
2019-02-16T14:02:17.031Z,20.23
2019-02-16T14:04:57.558Z,22.63
2019-02-16T14:07:50.092Z,17.33
2019-02-16T14:10:40.081Z,21.60
2019-02-16T14:13:30.119Z,20.43
2019-02-16T14:16:05.103Z,23.97
2019-02-16T14:18:32.346Z,23.23
2019-02-16T14:20:59.578Z,20.33
2019-02-16T14:23:28.437Z,20.77
2019-02-16T14:25:56.200Z,20.13
2019-02-16T14:28:23.465Z,21.87
2019-02-16T14:30:50.683Z,21.20
2019-02-16T14:33:18.208Z,21.00
2019-02-16T14:35:45.428Z,25.20
2019-02-16T14:38:32.496Z,20.80
2019-02-16T14:40:59.781Z,18.70
2019-02-16T14:43:27.060Z,20.90
2019-02-16T14:45:54.273Z,19.83
2019-02-16T14:48:21.520Z,21.60
2019-02-16T14:50:48.750Z,20.53
2019-02-16T14:53:16.032Z,22.73
2019-02-16T14:55:51.627Z,19.47
2019-02-16T14:58:12.437Z,19.33
2019-02-16T15:00:39.747Z,20.90
2019-02-16T15:03:07.305Z,20.00
2019-02-16T15:05:34.856Z,21.77
2019-02-16T15:08:02.519Z,22.43
2019-02-16T15:10:29.907Z,20.53
2019-02-16T15:12:57.173Z,23.27
2019-02-16T15:15:24.394Z,21.10
2019-02-16T15:17:51.647Z,20.43
2019-02-16T15:20:18.881Z,22.30
2019-02-16T15:22:46.133Z,19.77
2019-02-16T15:25:13.658Z,19.47
2019-02-16T15:27:40.895Z,18.43
2019-02-16T15:30:10.707Z,19.83
2019-02-16T15:32:37.932Z,20.03
2019-02-16T15:35:05.238Z,23.23
2019-02-16T15:37:32.452Z,22.13
2019-02-16T15:39:59.770Z,21.57
2019-02-16T15:42:26.996Z,20.93
2019-02-16T15:44:54.212Z,22.70
2019-02-16T15:47:21.448Z,20.27
2019-02-16T15:49:48.669Z,22.13
2019-02-16T15:52:15.901Z,22.20
2019-02-16T15:54:43.137Z,19.73
2019-02-16T15:57:10.373Z,20.47
2019-02-16T15:59:37.594Z,21.03
2019-02-16T16:02:04.845Z,19.87
2019-02-16T16:04:32.151Z,20.27
2019-02-16T16:06:59.556Z,19.57
2019-02-16T16:09:42.902Z,21.03
2019-02-16T16:12:28.024Z,17.70
2019-02-16T16:15:04.908Z,20.60
2019-02-16T16:17:57.827Z,16.77
2019-02-16T16:20:39.926Z,19.87
2019-02-16T16:23:27.081Z,19.30
2019-02-16T16:26:19.450Z,21.17
2019-02-16T16:29:12.363Z,21.17
2019-02-16T16:32:01.700Z,18.40
2019-02-16T16:35:07.095Z,16.07
2019-02-16T16:38:02.881Z,18.23
2019-02-16T16:40:42.760Z,20.70
2019-02-16T16:43:32.313Z,20.73
2019-02-16T16:46:18.133Z,18.40
2019-02-16T16:49:13.398Z,23.73
2019-02-16T16:52:15.603Z,19.43
2019-02-16T16:54:53.362Z,21.37
2019-02-16T16:57:42.524Z,18.73
2019-02-16T17:00:26.700Z,21.00
2019-02-16T17:03:11.851Z,21.00
2019-02-16T17:06:07.510Z,22.97
2019-02-16T17:09:06.220Z,20.20
2019-02-16T17:11:58.789Z,25.23
2019-02-16T17:14:36.308Z,24.23
2019-02-16T17:17:11.781Z,31.63
2019-02-16T17:19:58.527Z,36.57
2019-02-16T17:22:54.616Z,31.00
2019-02-16T17:25:33.084Z,25.13
2019-02-16T17:28:08.737Z,19.77
2019-02-16T17:31:07.595Z,22.80
2019-02-16T17:34:00.217Z,22.30
2019-02-16T17:36:44.212Z,26.50
2019-02-16T17:39:33.757Z,31.63
2019-02-16T17:42:18.904Z,30.70
2019-02-16T17:45:01.626Z,36.27
2019-02-16T17:47:46.992Z,25.03
2019-02-16T17:50:28.192Z,26.90
2019-02-16T17:53:10.584Z,25.63
2019-02-16T17:55:55.917Z,62.37
2019-02-16T17:58:54.509Z,30.17
2019-02-16T18:01:41.619Z,26.93
2019-02-16T18:04:17.411Z,22.27
2019-02-16T18:06:57.523Z,21.30
2019-02-16T18:10:03.116Z,19.70
2019-02-16T18:12:46.911Z,15.60
2019-02-16T18:15:23.406Z,15.67
2019-02-16T18:18:01.898Z,15.50
2019-02-16T18:21:02.194Z,14.67
2019-02-16T18:23:52.924Z,20.27
2019-02-16T18:26:42.413Z,19.83
2019-02-16T18:29:27.821Z,19.70
2019-02-16T18:32:14.667Z,18.83
2019-02-16T18:35:10.556Z,17.50
2019-02-16T18:37:44.842Z,14.97
2019-02-16T18:40:29.920Z,24.10
2019-02-16T18:43:10.164Z,27.97
2019-02-16T18:45:53.084Z,24.27
2019-02-16T18:48:44.814Z,24.47
2019-02-16T18:51:34.631Z,20.93
2019-02-16T18:54:27.244Z,25.00
2019-02-16T18:57:12.786Z,24.57
2019-02-16T18:59:59.264Z,22.63
2019-02-16T19:02:46.106Z,21.47
2019-02-16T19:05:33.634Z,23.33
2019-02-16T19:08:11.235Z,21.50
2019-02-16T19:10:58.136Z,21.23
2019-02-16T19:13:33.651Z,19.40
2019-02-16T19:16:12.555Z,21.43
2019-02-16T19:18:57.909Z,19.33
2019-02-16T19:21:45.517Z,19.33
2019-02-16T19:24:22.724Z,18.80
2019-02-16T19:27:16.716Z,20.93
2019-02-16T19:30:12.806Z,20.23
2019-02-16T19:32:47.260Z,21.27
2019-02-16T19:35:42.483Z,21.80
2019-02-16T19:38:27.529Z,22.13
2019-02-16T19:41:09.583Z,22.10
2019-02-16T19:43:45.667Z,21.80
2019-02-16T19:46:20.117Z,20.47
2019-02-16T19:48:57.627Z,26.03
2019-02-16T19:51:43.393Z,25.57
2019-02-16T19:54:18.872Z,26.70
2019-02-16T19:56:52.953Z,23.47
2019-02-16T19:59:45.980Z,23.83
2019-02-16T20:02:23.587Z,21.63
2019-02-16T20:04:58.498Z,23.20
2019-02-16T20:07:44.242Z,25.83
2019-02-16T20:10:34.283Z,27.80
2019-02-16T20:13:18.870Z,25.43
2019-02-16T20:16:11.739Z,21.80
2019-02-16T20:18:48.563Z,23.10
2019-02-16T20:21:38.224Z,24.07
2019-02-16T20:24:28.344Z,23.77
2019-02-16T20:27:15.127Z,27.67
2019-02-16T20:29:50.891Z,26.17
2019-02-16T20:32:40.812Z,26.73
2019-02-16T20:35:18.810Z,24.07
2019-02-16T20:37:59.273Z,27.13
2019-02-16T20:40:58.180Z,22.43
2019-02-16T20:43:37.625Z,23.50
2019-02-16T20:46:14.657Z,27.10
2019-02-16T20:48:50.967Z,29.23
2019-02-16T20:51:46.829Z,28.03
2019-02-16T20:54:36.456Z,31.43
2019-02-16T20:57:13.556Z,28.47
2019-02-16T20:59:54.111Z,25.90
2019-02-16T21:02:39.804Z,23.83
2019-02-16T21:05:44.843Z,25.10
2019-02-16T21:08:43.257Z,28.67
2019-02-16T21:11:45.132Z,27.10
2019-02-16T21:14:34.664Z,27.87
2019-02-16T21:17:12.641Z,25.53
2019-02-16T21:19:52.559Z,23.40
2019-02-16T21:22:29.848Z,24.57
2019-02-16T21:25:08.604Z,27.00
2019-02-16T21:27:57.415Z,24.60
2019-02-16T21:30:29.865Z,22.20
2019-02-16T21:33:36.402Z,21.07
2019-02-16T21:36:11.609Z,24.70
2019-02-16T21:39:05.979Z,19.20
2019-02-16T21:41:58.516Z,21.90
2019-02-16T21:44:54.621Z,21.03
2019-02-16T21:47:44.146Z,22.13
2019-02-16T21:50:33.093Z,25.73
2019-02-16T21:53:29.144Z,31.03
2019-02-16T21:56:34.052Z,28.47
2019-02-16T21:59:19.265Z,24.40
2019-02-16T22:02:07.589Z,25.20
2019-02-16T22:04:52.857Z,26.37
2019-02-16T22:07:42.707Z,25.67
2019-02-16T22:10:29.460Z,31.40
2019-02-16T22:13:08.575Z,29.80
2019-02-16T22:15:35.816Z,32.47
2019-02-16T22:18:03.039Z,37.07
2019-02-16T22:20:30.265Z,31.00
2019-02-16T22:22:57.492Z,32.30
2019-02-16T22:25:24.750Z,28.43
2019-02-16T22:27:51.972Z,30.70
2019-02-16T22:30:19.210Z,28.67
2019-02-16T22:32:46.436Z,29.30
2019-02-16T22:35:14.001Z,29.23
2019-02-16T22:37:41.273Z,28.57
2019-02-16T22:40:08.521Z,28.07
2019-02-16T22:42:36.090Z,27.77
2019-02-16T22:45:04.265Z,30.27
2019-02-16T22:47:31.607Z,26.50
2019-02-16T22:49:58.840Z,29.00
2019-02-16T22:52:26.500Z,25.70
2019-02-16T22:54:53.823Z,28.00
2019-02-16T22:57:21.097Z,29.53
2019-02-16T22:59:48.669Z,25.07
2019-02-16T23:02:16.411Z,27.20
2019-02-16T23:04:43.645Z,27.10
2019-02-16T23:07:11.287Z,27.30
2019-02-16T23:09:38.499Z,24.37
2019-02-16T23:12:06.062Z,29.40
2019-02-16T23:14:33.288Z,27.10
2019-02-16T23:17:00.886Z,24.27
2019-02-16T23:19:28.420Z,26.10
2019-02-16T23:21:55.674Z,27.73
2019-02-16T23:24:23.256Z,30.37
2019-02-16T23:26:50.502Z,25.37
2019-02-16T23:29:18.040Z,24.27
2019-02-16T23:31:45.256Z,26.43
2019-02-16T23:34:12.502Z,24.77
2019-02-16T23:36:39.733Z,31.03
2019-02-16T23:39:07.148Z,25.33
2019-02-16T23:41:34.392Z,28.77
2019-02-16T23:44:01.708Z,26.53
2019-02-16T23:46:29.234Z,24.87
2019-02-16T23:48:57.625Z,27.67
2019-02-16T23:51:24.974Z,26.53
2019-02-16T23:53:52.400Z,28.03
2019-02-16T23:56:20.376Z,20.70
2019-02-16T23:58:49.517Z,28.03
